EmailTwitter


Observations de surface / France / LFBD (07510)

Régions: Québec | Canada | États-Unis | Europe | France | UK | Ailleurs
Station
Affichage
Infos & localisation pour LFBD (07510) | Aide pour décoder les METARs

Observations prises le 2018-06-18 à 21H00 UTC à BORDEAUX/MERIGNA, FR (LFBD)

Température: 18.0 Celsius

Point de rosée: 15.0 Celsius

Humidité relative: 83%

Indice Humidex: 22.

Vents: Nord-ouest à 7 km/h ou 4 noeuds.

Pression au niveau moyen de la mer: 102.60 kilopascals.

Observation METAR:

LFBD 182100Z AUTO 31004KT CAVOK 18/15 Q1026 NOSIG=